»·PEaware :: N153MS KBOI-KPIH

N153MS :: KBOI-KPIH

FLIGHT INFORMATION

Flight Status: Arrived
Operator: Privately registered:
United States
More flights under this callsign
Pilot: Shane N. (25833)
Aircraft: MOONEY M-20K/M ENCORE BRAVO
(M20T)
More flights by this aircraft type
Origin: KBOI Boise Air Terminal/Gowen
United States
Destination: KPIH Pocatello Regl
United States
More flights between these airports :: More routes between these airports
Route: BOI3 ROARR
File this flight plan on PilotEdge
Remarks:
Altitude:
(Current/Filed)
17,000ft
Speed:
(Current/Filed)
200kts
Departed: 22-Mar-20 10:06 PM
Arrived: 22-Mar-20 11:09 PM
Distance/Time
Traveled:
164nm/1:02
Distance/Time
To Go:
Arrived

Flight Plot

Page will automatically refresh every two minutes.


Map Options




Map Legend


Flown Route
Filed Route
Departure Airport
Arrival Airport
Navaid (VOR, NDB)
Fix

Horizontal Profiles

Position Reports

Time Latitude Longitude Heading Altitude Ground
Speed
22-Mar-20 21:55 43.562236 -116.206303 270 2864ft 0kts
22-Mar-20 21:56 43.562236 -116.206303 270 2864ft 0kts
22-Mar-20 21:57 43.562236 -116.206303 270 2864ft 0kts
22-Mar-20 21:58 43.562236 -116.206303 270 2864ft 0kts
22-Mar-20 21:59 43.562236 -116.206303 270 2864ft 0kts
22-Mar-20 22:00 43.562236 -116.206303 270 2864ft 0kts
22-Mar-20 22:01 43.569567 -116.229533 183 2834ft 0kts
22-Mar-20 22:02 43.569550 -116.229534 182 2834ft 0kts
22-Mar-20 22:03 43.570236 -116.233434 295 2829ft 12kts
22-Mar-20 22:04 43.570948 -116.236140 244 2823ft 0kts
22-Mar-20 22:05 43.563684 -116.217953 113 3066ft 119kts
22-Mar-20 22:06 43.553160 -116.180124 110 4824ft 106kts
22-Mar-20 22:07 43.542082 -116.141829 115 6395ft 111kts
22-Mar-20 22:08 43.529601 -116.102191 116 7928ft 117kts
22-Mar-20 22:09 43.517315 -116.063708 117 9296ft 125kts
22-Mar-20 22:10 43.502891 -116.018739 115 10791ft 133kts
22-Mar-20 22:11 43.487634 -115.971246 113 12283ft 139kts
22-Mar-20 22:12 43.471864 -115.922179 113 13779ft 143kts
22-Mar-20 22:13 43.455586 -115.871632 112 15258ft 147kts
22-Mar-20 22:14 43.438778 -115.819542 112 16720ft 151kts
22-Mar-20 22:15 43.418187 -115.756226 113 17028ft 212kts
22-Mar-20 22:16 43.392506 -115.677479 113 17029ft 234kts
22-Mar-20 22:17 43.365569 -115.594705 113 17029ft 239kts
22-Mar-20 22:18 43.338296 -115.511084 113 17029ft 240kts
22-Mar-20 22:19 43.310887 -115.427295 113 17013ft 241kts
22-Mar-20 22:20 43.288768 -115.340602 99 17010ft 240kts
22-Mar-20 22:21 43.277035 -115.250615 98 17008ft 240kts
22-Mar-20 22:22 43.265596 -115.160236 98 17013ft 239kts
22-Mar-20 22:23 43.254690 -115.074520 99 17025ft 238kts
22-Mar-20 22:24 43.243264 -114.985303 99 17036ft 236kts
22-Mar-20 22:25 43.231868 -114.896883 100 17043ft 234kts
22-Mar-20 22:26 43.220458 -114.808888 100 17048ft 234kts
22-Mar-20 22:27 43.209026 -114.721282 100 17054ft 234kts
22-Mar-20 22:28 43.197493 -114.633446 100 17055ft 234kts
22-Mar-20 22:29 43.185894 -114.545655 100 17054ft 234kts
22-Mar-20 22:30 43.174241 -114.457993 100 17053ft 234kts
22-Mar-20 22:31 43.162488 -114.370112 100 17052ft 234kts
22-Mar-20 22:32 43.151093 -114.285433 100 17048ft 234kts
22-Mar-20 22:33 43.139235 -114.197823 100 17047ft 234kts
22-Mar-20 22:34 43.127323 -114.110337 100 17046ft 234kts
22-Mar-20 22:35 43.115346 -114.022899 100 17045ft 234kts
22-Mar-20 22:36 43.103243 -113.935066 100 17044ft 234kts
22-Mar-20 22:37 43.091102 -113.847475 100 17043ft 234kts
22-Mar-20 22:38 43.078917 -113.760077 100 17041ft 234kts
22-Mar-20 22:39 43.077580 -113.671096 87 17040ft 234kts
22-Mar-20 22:40 43.079263 -113.581923 87 17039ft 234kts
22-Mar-20 22:41 43.080901 -113.492733 87 17038ft 234kts
22-Mar-20 22:42 43.082466 -113.403821 87 17040ft 234kts
22-Mar-20 22:43 43.083961 -113.314972 88 17040ft 234kts
22-Mar-20 22:44 43.085354 -113.226591 88 16686ft 231kts
22-Mar-20 22:45 43.086701 -113.139524 88 15682ft 227kts
22-Mar-20 22:46 43.087938 -113.054319 89 14682ft 222kts
22-Mar-20 22:47 43.089100 -112.970270 89 13679ft 220kts
22-Mar-20 22:48 43.090197 -112.886445 90 12676ft 221kts
22-Mar-20 22:49 43.091238 -112.802208 91 11671ft 221kts
22-Mar-20 22:50 43.092204 -112.718285 92 10666ft 219kts
22-Mar-20 22:51 43.093096 -112.636082 92 9664ft 214kts
22-Mar-20 22:52 43.093931 -112.555479 91 9000ft 207kts
22-Mar-20 22:53 43.094676 -112.478290 92 8999ft 200kts
22-Mar-20 22:54 43.095345 -112.402517 92 8999ft 198kts
22-Mar-20 22:55 43.098492 -112.327241 62 8995ft 203kts
22-Mar-20 22:56 43.139183 -112.272964 43 8995ft 204kts
22-Mar-20 22:57 43.185104 -112.237107 331 8989ft 195kts
22-Mar-20 22:58 43.173821 -112.285414 207 8996ft 174kts
22-Mar-20 22:59 43.130156 -112.314511 206 8997ft 175kts
22-Mar-20 23:00 43.087574 -112.345627 226 8994ft 175kts
22-Mar-20 23:01 43.052270 -112.395618 223 7320ft 170kts
22-Mar-20 23:02 43.021667 -112.437400 221 6995ft 133kts
22-Mar-20 23:03 42.994499 -112.474251 222 6549ft 145kts
22-Mar-20 23:04 42.967113 -112.511688 222 5801ft 119kts
22-Mar-20 23:05 42.946065 -112.540367 221 5235ft 86kts
22-Mar-20 23:06 42.930303 -112.561814 221 4822ft 79kts
22-Mar-20 23:07 42.915593 -112.581791 225 4448ft 52kts
22-Mar-20 23:08 42.910294 -112.586275 119 4444ft 11kts
22-Mar-20 23:09 42.910047 -112.585340 45 4444ft 0kts
22-Mar-20 23:10 42.910047 -112.585340 45 4444ft 0kts
22-Mar-20 23:11 42.910047 -112.585340 45 4444ft 0kts

Navigation Log

Ident Type
Flight plan parsing failed, navigation log unavailable